Time;durP1;ratioP1;P1;durP2;ratioP2;P2;SDS_P1;SDS_P2;PMS_P1;PMS_P2;Temp;Humidity;BMP_temperature;BMP_pressure;BME280_temperature;BME280_humidity;BME280_pressure;Samples;Min_cycle;Max_cycle;Signal;HPM_P1;HPM_P2
2021/01/11 00:02:25;;;;;;;84.40;46.93;;;;;;;;;;770252;179;918871;-70
2021/01/11 00:04:51;;;;;;;85.97;45.53;;;;;;;;;;772894;179;918962;-71
2021/01/11 00:07:17;;;;;;;85.43;46.20;;;;;;;;;;776345;178;918995;-69
2021/01/11 00:09:43;;;;;;;83.67;42.43;;;;;;;;;;770879;181;917870;-70
2021/01/11 00:12:09;;;;;;;80.73;45.93;;;;;;;;;;778167;178;918847;-70
2021/01/11 00:14:35;;;;;;;83.30;43.15;;;;;;;;;;771346;178;918805;-71
2021/01/11 00:17:00;;;;;;;82.00;41.67;;;;;;;;;;776057;179;918169;-70
2021/01/11 00:19:26;;;;;;;76.80;39.47;;;;;;;;;;774055;179;923691;-69
2021/01/11 00:21:52;;;;;;;87.72;41.75;;;;;;;;;;778045;179;918619;-70
2021/01/11 00:24:18;;;;;;;72.47;37.40;;;;;;;;;;779467;178;1006097;-70
2021/01/11 00:26:48;;;;;;;71.47;36.97;;;;;;;;;;776770;178;918521;-70
2021/01/11 00:29:13;;;;;;;79.03;38.60;;;;;;;;;;778345;176;918457;-70
2021/01/11 00:31:39;;;;;;;82.73;39.50;;;;;;;;;;779280;178;918539;-70
2021/01/11 00:34:05;;;;;;;78.10;41.83;;;;;;;;;;772299;180;918485;-70
2021/01/11 00:36:31;;;;;;;84.85;42.60;;;;;;;;;;777402;178;919664;-70
2021/01/11 00:38:58;;;;;;;70.30;39.37;;;;;;;;;;778918;177;918830;-69
2021/01/11 00:41:24;;;;;;;78.83;43.27;;;;;;;;;;784964;177;918698;-70
2021/01/11 00:43:50;;;;;;;83.70;44.23;;;;;;;;;;777663;178;919102;-70
2021/01/11 00:46:19;;;;;;;82.17;45.10;;;;;;;;;;776660;177;918870;-70
2021/01/11 00:48:46;;;;;;;75.32;40.95;;;;;;;;;;780800;179;918705;-70
2021/01/11 00:51:11;;;;;;;80.30;38.40;;;;;;;;;;770206;180;918533;-70
2021/01/11 00:53:37;;;;;;;66.93;37.97;;;;;;;;;;773651;178;918298;-70
2021/01/11 00:56:03;;;;;;;81.00;38.60;;;;;;;;;;766524;180;918870;-71
2021/01/11 00:58:29;;;;;;;76.73;37.77;;;;;;;;;;787239;178;659723;-70
2021/01/11 01:00:55;;;;;;;66.27;36.80;;;;;;;;;;770128;178;920073;-70
2021/01/11 01:03:21;;;;;;;58.27;34.63;;;;;;;;;;778536;178;918754;-70
2021/01/11 01:05:46;;;;;;;69.37;37.27;;;;;;;;;;782151;178;1038359;-70
2021/01/11 01:08:12;;;;;;;74.17;36.60;;;;;;;;;;777980;179;918897;-70
2021/01/11 01:10:38;;;;;;;69.80;36.57;;;;;;;;;;774489;179;918637;-70
2021/01/11 01:13:04;;;;;;;68.70;38.00;;;;;;;;;;779069;179;918633;-70
2021/01/11 01:15:30;;;;;;;85.83;40.70;;;;;;;;;;771680;179;919022;-70
2021/01/11 01:17:56;;;;;;;83.53;36.97;;;;;;;;;;780337;178;918705;-69
2021/01/11 01:20:22;;;;;;;66.47;37.23;;;;;;;;;;778167;178;1022307;-70
2021/01/11 01:22:48;;;;;;;68.30;35.60;;;;;;;;;;781773;177;931930;-71
2021/01/11 01:25:13;;;;;;;56.13;33.87;;;;;;;;;;778293;179;919062;-70
2021/01/11 01:27:39;;;;;;;81.27;36.20;;;;;;;;;;769828;178;919612;-69
2021/01/11 01:30:06;;;;;;;69.53;35.80;;;;;;;;;;777179;179;912980;-70
2021/01/11 01:32:31;;;;;;;70.27;39.40;;;;;;;;;;770702;178;985736;-71
2021/01/11 01:34:57;;;;;;;80.17;40.20;;;;;;;;;;777653;178;916344;-70
2021/01/11 01:37:23;;;;;;;75.65;39.38;;;;;;;;;;780207;178;913521;-69
2021/01/11 01:39:49;;;;;;;75.50;40.23;;;;;;;;;;776898;179;919244;-70
2021/01/11 01:42:15;;;;;;;72.43;39.90;;;;;;;;;;777164;177;918866;-69
2021/01/11 01:44:41;;;;;;;73.07;37.00;;;;;;;;;;779536;178;919502;-68
2021/01/11 01:47:07;;;;;;;78.77;39.60;;;;;;;;;;780128;179;917611;-71
2021/01/11 01:49:32;;;;;;;71.30;36.60;;;;;;;;;;777966;178;918205;-70
2021/01/11 01:51:59;;;;;;;69.28;39.58;;;;;;;;;;767959;177;1822640;-68
2021/01/11 01:54:24;;;;;;;65.17;37.73;;;;;;;;;;777639;178;934663;-70
2021/01/11 01:56:50;;;;;;;72.07;38.50;;;;;;;;;;776790;178;920234;-70
2021/01/11 01:59:16;;;;;;;75.80;36.50;;;;;;;;;;770516;178;918865;-70
2021/01/11 02:01:42;;;;;;;71.60;37.77;;;;;;;;;;783375;179;918896;-69
2021/01/11 02:04:07;;;;;;;83.63;38.57;;;;;;;;;;775658;178;919412;-70
2021/01/11 02:06:33;;;;;;;69.83;36.67;;;;;;;;;;776113;178;941811;-70
2021/01/11 02:09:10;;;;;;;69.47;37.90;;;;;;;;;;781214;178;918157;-70
2021/01/11 02:11:38;;;;;;;76.40;38.40;;;;;;;;;;774711;179;919112;-69
2021/01/11 02:14:07;;;;;;;71.27;37.67;;;;;;;;;;763211;179;1066920;-69
2021/01/11 02:16:39;;;;;;;66.90;36.70;;;;;;;;;;779026;178;1020755;-69
2021/01/11 02:19:21;;;;;;;68.33;37.30;;;;;;;;;;768384;179;919000;-70
2021/01/11 02:22:06;;;;;;;62.30;35.03;;;;;;;;;;764722;181;918008;-70
2021/01/11 02:24:32;;;;;;;75.28;35.92;;;;;;;;;;773274;178;919026;-70
2021/01/11 02:26:59;;;;;;;77.10;39.87;;;;;;;;;;781983;178;919146;-70
2021/01/11 02:29:35;;;;;;;79.27;38.10;;;;;;;;;;772177;178;919909;-71
2021/01/11 02:32:01;;;;;;;71.32;37.90;;;;;;;;;;769306;178;920359;-70
2021/01/11 02:34:27;;;;;;;83.12;40.83;;;;;;;;;;777937;178;917916;-71
2021/01/11 02:36:53;;;;;;;84.30;40.70;;;;;;;;;;782783;178;985545;-71
2021/01/11 02:39:19;;;;;;;78.40;37.57;;;;;;;;;;771457;179;918221;-70
2021/01/11 02:41:45;;;;;;;83.83;39.30;;;;;;;;;;776771;178;916059;-71
2021/01/11 02:44:11;;;;;;;74.00;39.60;;;;;;;;;;777624;178;914449;-70
2021/01/11 02:46:36;;;;;;;93.25;40.70;;;;;;;;;;777963;179;918392;-70
2021/01/11 02:49:05;;;;;;;71.53;40.57;;;;;;;;;;774826;178;918833;-69
2021/01/11 02:51:32;;;;;;;89.20;43.43;;;;;;;;;;774766;179;918694;-69
2021/01/11 02:54:18;;;;;;;84.10;43.77;;;;;;;;;;783543;177;912825;-69
2021/01/11 02:56:46;;;;;;;77.40;41.50;;;;;;;;;;783174;180;918904;-70
2021/01/11 02:59:24;;;;;;;73.40;40.47;;;;;;;;;;764196;180;918482;-70
2021/01/11 03:01:50;;;;;;;76.23;37.60;;;;;;;;;;774754;178;1015568;-70
2021/01/11 03:04:18;;;;;;;76.70;37.27;;;;;;;;;;772828;178;918637;-70
2021/01/11 03:06:43;;;;;;;71.83;36.90;;;;;;;;;;779606;177;916205;-70
2021/01/11 03:09:09;;;;;;;72.90;39.17;;;;;;;;;;777750;178;916039;-70
2021/01/11 03:11:35;;;;;;;73.43;39.77;;;;;;;;;;773356;178;916003;-70
2021/01/11 03:14:01;;;;;;;75.77;39.67;;;;;;;;;;779629;178;966250;-69
2021/01/11 03:16:27;;;;;;;79.50;40.60;;;;;;;;;;781548;178;918578;-71
2021/01/11 03:18:53;;;;;;;69.57;37.40;;;;;;;;;;776840;178;918921;-69
2021/01/11 03:21:19;;;;;;;72.10;34.93;;;;;;;;;;769972;178;1375713;-70
2021/01/11 03:23:44;;;;;;;65.93;37.80;;;;;;;;;;782986;178;918658;-70
2021/01/11 03:26:10;;;;;;;73.43;36.83;;;;;;;;;;775470;178;917364;-70
2021/01/11 03:28:36;;;;;;;62.53;36.70;;;;;;;;;;775423;178;1024702;-70
2021/01/11 03:31:02;;;;;;;83.50;38.10;;;;;;;;;;778420;179;920211;-70
2021/01/11 03:33:28;;;;;;;71.73;36.43;;;;;;;;;;776097;179;918560;-69
2021/01/11 03:35:54;;;;;;;71.30;36.83;;;;;;;;;;775789;178;930804;-69
2021/01/11 03:38:20;;;;;;;81.93;39.05;;;;;;;;;;776316;178;943242;-69
2021/01/11 03:40:46;;;;;;;72.83;38.73;;;;;;;;;;774367;179;918715;-69
2021/01/11 03:43:12;;;;;;;75.35;35.28;;;;;;;;;;774376;177;985988;-68
2021/01/11 03:45:38;;;;;;;83.80;36.80;;;;;;;;;;777483;179;919044;-69
2021/01/11 03:48:04;;;;;;;71.83;36.03;;;;;;;;;;779348;179;932669;-69
2021/01/11 03:50:30;;;;;;;63.22;34.05;;;;;;;;;;779344;178;951455;-70
2021/01/11 03:52:56;;;;;;;65.68;36.42;;;;;;;;;;775999;178;918415;-70
2021/01/11 03:55:22;;;;;;;80.87;37.17;;;;;;;;;;781635;179;917882;-69
2021/01/11 03:57:48;;;;;;;73.00;36.83;;;;;;;;;;775444;177;918326;-69
2021/01/11 04:00:14;;;;;;;72.43;38.70;;;;;;;;;;776859;178;919090;-70
2021/01/11 04:02:40;;;;;;;64.13;37.00;;;;;;;;;;780952;178;980720;-69
2021/01/11 04:05:06;;;;;;;67.83;36.57;;;;;;;;;;768945;178;918455;-71
2021/01/11 04:07:32;;;;;;;75.33;36.60;;;;;;;;;;777062;177;918977;-69
2021/01/11 04:09:58;;;;;;;77.50;37.17;;;;;;;;;;779961;177;919291;-70
2021/01/11 04:12:24;;;;;;;71.27;35.27;;;;;;;;;;775825;179;919971;-72
2021/01/11 04:14:50;;;;;;;65.27;36.37;;;;;;;;;;778653;178;918795;-70
2021/01/11 04:17:16;;;;;;;72.97;34.57;;;;;;;;;;780245;178;919472;-70
2021/01/11 04:19:42;;;;;;;68.30;37.40;;;;;;;;;;782219;177;915868;-70
2021/01/11 04:22:08;;;;;;;62.00;35.10;;;;;;;;;;776499;178;920200;-70
2021/01/11 04:24:34;;;;;;;61.47;33.60;;;;;;;;;;773828;178;918843;-69
2021/01/11 04:26:59;;;;;;;72.43;37.10;;;;;;;;;;780560;178;915816;-70
2021/01/11 04:29:25;;;;;;;77.80;38.53;;;;;;;;;;772932;178;918521;-70
2021/01/11 04:31:51;;;;;;;70.70;38.80;;;;;;;;;;776846;178;918857;-69
2021/01/11 04:34:17;;;;;;;80.97;40.10;;;;;;;;;;777527;178;917796;-70
2021/01/11 04:36:43;;;;;;;89.73;40.50;;;;;;;;;;770231;180;918515;-70
2021/01/11 04:39:09;;;;;;;91.93;42.93;;;;;;;;;;773773;178;945598;-70
2021/01/11 04:41:34;;;;;;;94.53;44.78;;;;;;;;;;782092;178;919423;-69
2021/01/11 04:44:00;;;;;;;72.70;36.27;;;;;;;;;;777309;178;919159;-69
2021/01/11 04:46:26;;;;;;;72.00;39.53;;;;;;;;;;774286;179;919334;-69
2021/01/11 04:48:52;;;;;;;107.93;49.97;;;;;;;;;;771484;178;918826;-68
2021/01/11 04:51:18;;;;;;;75.60;37.37;;;;;;;;;;778238;178;918758;-70
2021/01/11 04:53:44;;;;;;;88.10;42.33;;;;;;;;;;777281;179;920277;-69
2021/01/11 04:56:09;;;;;;;75.67;35.47;;;;;;;;;;768566;178;919200;-68
2021/01/11 04:58:45;;;;;;;60.67;34.47;;;;;;;;;;780338;178;920637;-69
2021/01/11 05:01:11;;;;;;;60.23;34.70;;;;;;;;;;770757;180;915255;-69
2021/01/11 05:03:37;;;;;;;88.37;46.33;;;;;;;;;;770903;179;916525;-69
2021/01/11 05:06:03;;;;;;;97.00;47.50;;;;;;;;;;778399;177;1017838;-69
2021/01/11 05:08:29;;;;;;;76.37;38.90;;;;;;;;;;785550;179;632259;-69
2021/01/11 05:10:54;;;;;;;88.80;36.60;;;;;;;;;;769813;178;2301430;-69
2021/01/11 05:13:20;;;;;;;71.87;35.97;;;;;;;;;;779561;179;1023856;-70
2021/01/11 05:15:46;;;;;;;77.50;37.90;;;;;;;;;;775617;178;919304;-70
2021/01/11 05:18:15;;;;;;;70.73;38.93;;;;;;;;;;780717;179;918966;-70
2021/01/11 05:20:41;;;;;;;81.57;44.73;;;;;;;;;;773096;177;918756;-68
2021/01/11 05:23:07;;;;;;;80.45;38.35;;;;;;;;;;775125;178;918365;-69
2021/01/11 05:25:33;;;;;;;69.87;37.67;;;;;;;;;;778601;178;922073;-68
2021/01/11 05:28:02;;;;;;;77.53;36.60;;;;;;;;;;776130;178;921798;-69
2021/01/11 05:30:29;;;;;;;70.47;36.10;;;;;;;;;;774107;178;920888;-69
2021/01/11 05:32:55;;;;;;;63.78;38.20;;;;;;;;;;774367;178;917762;-69
2021/01/11 05:35:21;;;;;;;74.67;38.03;;;;;;;;;;779423;180;826762;-69
2021/01/11 05:37:47;;;;;;;80.60;37.87;;;;;;;;;;772748;176;919163;-69
2021/01/11 05:40:13;;;;;;;94.57;42.20;;;;;;;;;;773426;178;918692;-69
2021/01/11 05:42:40;;;;;;;71.20;36.20;;;;;;;;;;777988;178;920220;-69
2021/01/11 05:45:07;;;;;;;79.27;40.50;;;;;;;;;;774705;179;920010;-69
2021/01/11 05:47:34;;;;;;;69.63;37.60;;;;;;;;;;773703;178;918706;-68
2021/01/11 05:50:05;;;;;;;72.50;37.00;;;;;;;;;;777343;178;907766;-69
2021/01/11 05:52:31;;;;;;;86.68;40.67;;;;;;;;;;772677;180;915654;-68
2021/01/11 05:54:57;;;;;;;75.00;38.20;;;;;;;;;;771369;178;915085;-70
2021/01/11 05:57:23;;;;;;;80.87;43.90;;;;;;;;;;773039;178;916485;-69
2021/01/11 05:59:49;;;;;;;82.90;43.23;;;;;;;;;;777930;179;915104;-68
2021/01/11 06:02:14;;;;;;;73.93;38.50;;;;;;;;;;770942;178;921723;-69
2021/01/11 06:04:40;;;;;;;69.20;40.07;;;;;;;;;;775400;178;918869;-69
2021/01/11 06:07:06;;;;;;;83.97;38.57;;;;;;;;;;780296;178;919010;-69
2021/01/11 06:09:32;;;;;;;77.37;44.57;;;;;;;;;;778062;179;918251;-69
2021/01/11 06:11:59;;;;;;;82.27;40.90;;;;;;;;;;770507;179;924236;-70
2021/01/11 06:14:25;;;;;;;75.37;39.83;;;;;;;;;;774397;179;919827;-70
2021/01/11 06:16:51;;;;;;;81.63;46.03;;;;;;;;;;776630;180;918014;-69
2021/01/11 06:19:16;;;;;;;82.13;41.47;;;;;;;;;;774220;178;919081;-69
2021/01/11 06:21:48;;;;;;;82.33;40.93;;;;;;;;;;774103;178;925723;-68
2021/01/11 06:24:17;;;;;;;88.83;42.77;;;;;;;;;;782569;178;918845;-69
2021/01/11 06:26:43;;;;;;;78.80;43.23;;;;;;;;;;771630;179;917642;-69
2021/01/11 06:29:15;;;;;;;101.57;51.00;;;;;;;;;;776936;177;918886;-69
2021/01/11 06:31:41;;;;;;;93.60;48.37;;;;;;;;;;779602;177;918576;-69
2021/01/11 06:34:07;;;;;;;84.17;44.53;;;;;;;;;;779721;178;918238;-69
2021/01/11 06:36:34;;;;;;;91.60;48.60;;;;;;;;;;777665;178;982609;-69
2021/01/11 06:39:05;;;;;;;77.85;41.90;;;;;;;;;;775219;178;748285;-69
2021/01/11 06:41:30;;;;;;;87.77;43.70;;;;;;;;;;774233;179;919276;-68
2021/01/11 06:43:56;;;;;;;88.70;44.87;;;;;;;;;;779579;178;927669;-69
2021/01/11 06:46:43;;;;;;;107.60;49.40;;;;;;;;;;773326;178;918839;-69
2021/01/11 06:49:09;;;;;;;99.83;47.73;;;;;;;;;;771297;179;920459;-68
2021/01/11 06:51:43;;;;;;;139.07;66.00;;;;;;;;;;776849;178;918813;-69
2021/01/11 06:54:10;;;;;;;107.60;53.83;;;;;;;;;;773895;178;1021693;-68
2021/01/11 06:56:37;;;;;;;115.73;48.60;;;;;;;;;;786102;178;962244;-68
2021/01/11 06:59:07;;;;;;;138.10;63.27;;;;;;;;;;769608;178;918562;-68
2021/01/11 07:01:35;;;;;;;162.27;81.93;;;;;;;;;;778415;178;914518;-68
2021/01/11 07:04:01;;;;;;;113.10;54.87;;;;;;;;;;773564;178;916128;-67
2021/01/11 07:06:33;;;;;;;175.07;75.07;;;;;;;;;;776759;179;915064;-68
2021/01/11 07:09:05;;;;;;;95.23;50.43;;;;;;;;;;777394;176;918622;-68
2021/01/11 07:11:31;;;;;;;114.80;49.90;;;;;;;;;;778027;178;918110;-68
2021/01/11 07:13:57;;;;;;;122.27;51.23;;;;;;;;;;775116;179;923539;-67
2021/01/11 07:16:23;;;;;;;113.43;52.97;;;;;;;;;;770188;181;917150;-68
2021/01/11 07:18:49;;;;;;;431.57;209.27;;;;;;;;;;772454;177;918547;-68
2021/01/11 07:21:16;;;;;;;457.30;219.90;;;;;;;;;;775861;177;918126;-69
2021/01/11 07:23:42;;;;;;;118.90;56.13;;;;;;;;;;780484;178;918300;-68
2021/01/11 07:26:09;;;;;;;116.23;52.43;;;;;;;;;;774458;178;943876;-68
2021/01/11 07:28:34;;;;;;;111.13;47.80;;;;;;;;;;776626;179;918071;-68
2021/01/11 07:31:00;;;;;;;139.70;64.80;;;;;;;;;;780994;179;918401;-68
2021/01/11 07:33:26;;;;;;;125.30;62.23;;;;;;;;;;772878;179;919410;-69
2021/01/11 07:35:52;;;;;;;86.70;45.00;;;;;;;;;;771365;178;917904;-68
2021/01/11 07:38:19;;;;;;;101.50;43.53;;;;;;;;;;779691;179;918632;-69
2021/01/11 07:40:44;;;;;;;97.17;40.87;;;;;;;;;;779053;178;919107;-69
2021/01/11 07:43:10;;;;;;;109.10;52.53;;;;;;;;;;777189;178;918871;-69
2021/01/11 07:45:39;;;;;;;120.35;54.85;;;;;;;;;;776615;177;914258;-68
2021/01/11 07:48:06;;;;;;;109.68;50.67;;;;;;;;;;782595;178;919050;-69
2021/01/11 07:50:31;;;;;;;102.38;50.05;;;;;;;;;;778343;178;918364;-69
2021/01/11 07:52:57;;;;;;;106.28;49.03;;;;;;;;;;774171;178;918971;-69
2021/01/11 07:55:27;;;;;;;262.40;106.97;;;;;;;;;;782883;178;919455;-69
2021/01/11 07:57:52;;;;;;;111.97;49.00;;;;;;;;;;775764;180;920453;-69
2021/01/11 08:00:19;;;;;;;132.60;61.67;;;;;;;;;;778609;178;918871;-69
2021/01/11 08:02:45;;;;;;;150.37;64.83;;;;;;;;;;776738;178;918634;-68
2021/01/11 08:05:16;;;;;;;145.27;66.70;;;;;;;;;;783722;178;918824;-68
2021/01/11 08:07:42;;;;;;;109.20;53.17;;;;;;;;;;779319;178;918960;-68
2021/01/11 08:10:09;;;;;;;127.90;57.17;;;;;;;;;;774187;177;919049;-69
2021/01/11 08:12:34;;;;;;;106.53;51.80;;;;;;;;;;771905;177;919051;-69
2021/01/11 08:15:00;;;;;;;129.27;54.63;;;;;;;;;;775694;180;919346;-68
2021/01/11 08:17:27;;;;;;;117.60;49.83;;;;;;;;;;773550;178;918037;-69
2021/01/11 08:19:52;;;;;;;111.47;54.47;;;;;;;;;;774329;179;918559;-67
2021/01/11 08:22:18;;;;;;;160.37;62.70;;;;;;;;;;776407;179;918753;-69
2021/01/11 08:24:44;;;;;;;168.40;45.60;;;;;;;;;;777568;179;914406;-69
2021/01/11 08:27:11;;;;;;;169.15;50.47;;;;;;;;;;769167;178;914257;-68
2021/01/11 08:29:36;;;;;;;179.13;56.20;;;;;;;;;;783031;178;918900;-68
2021/01/11 08:32:03;;;;;;;139.98;49.75;;;;;;;;;;769399;179;920859;-69
2021/01/11 08:34:29;;;;;;;130.68;50.05;;;;;;;;;;769757;178;933556;-69
2021/01/11 08:36:55;;;;;;;125.87;44.88;;;;;;;;;;777306;179;935094;-67
2021/01/11 08:39:21;;;;;;;135.93;55.87;;;;;;;;;;767726;179;1047156;-69
2021/01/11 08:41:47;;;;;;;144.20;51.87;;;;;;;;;;773167;179;919026;-69
2021/01/11 08:44:18;;;;;;;257.93;99.30;;;;;;;;;;770389;179;1020651;-69
2021/01/11 08:46:50;;;;;;;158.93;51.37;;;;;;;;;;782542;179;919102;-69
2021/01/11 08:49:16;;;;;;;238.27;53.27;;;;;;;;;;776697;179;981021;-69
2021/01/11 08:51:42;;;;;;;169.87;52.97;;;;;;;;;;778005;177;918911;-69
2021/01/11 08:54:07;;;;;;;145.73;47.10;;;;;;;;;;777392;177;918803;-69
2021/01/11 08:56:35;;;;;;;166.40;57.30;;;;;;;;;;777982;178;925679;-69
2021/01/11 08:58:59;;;;;;;166.10;54.27;;;;;;;;;;771950;178;919707;-68
2021/01/11 09:01:25;;;;;;;153.40;47.40;;;;;;;;;;779676;178;918777;-69
2021/01/11 09:03:55;;;;;;;135.17;46.40;;;;;;;;;;779315;178;1021359;-69
2021/01/11 09:06:25;;;;;;;124.43;43.53;;;;;;;;;;780164;178;918460;-69
2021/01/11 09:08:52;;;;;;;150.97;48.20;;;;;;;;;;775118;178;919881;-69
2021/01/11 09:11:18;;;;;;;143.97;46.93;;;;;;;;;;775602;178;920976;-69
2021/01/11 09:13:43;;;;;;;123.10;46.07;;;;;;;;;;783127;178;940744;-70
2021/01/11 09:16:10;;;;;;;165.23;44.70;;;;;;;;;;772896;177;941609;-69
2021/01/11 09:18:36;;;;;;;168.47;45.67;;;;;;;;;;775484;179;918862;-70
2021/01/11 09:21:03;;;;;;;164.50;46.83;;;;;;;;;;780429;177;918396;-70
2021/01/11 09:23:27;;;;;;;150.33;46.27;;;;;;;;;;771409;178;916384;-69
2021/01/11 09:25:53;;;;;;;180.37;43.00;;;;;;;;;;773148;178;917222;-70
2021/01/11 09:28:19;;;;;;;214.70;50.23;;;;;;;;;;782638;178;918914;-70
2021/01/11 09:30:47;;;;;;;234.20;49.13;;;;;;;;;;776467;179;918597;-71
2021/01/11 09:33:11;;;;;;;223.80;47.57;;;;;;;;;;775368;179;919112;-71
2021/01/11 09:35:37;;;;;;;185.30;43.37;;;;;;;;;;772911;179;897706;-71
2021/01/11 09:38:03;;;;;;;196.37;43.10;;;;;;;;;;777362;179;921485;-71
2021/01/11 09:40:28;;;;;;;282.60;58.27;;;;;;;;;;771864;179;919143;-72
2021/01/11 09:42:54;;;;;;;299.70;56.20;;;;;;;;;;774369;177;926028;-72
2021/01/11 09:45:20;;;;;;;230.50;49.08;;;;;;;;;;780035;179;919262;-72
2021/01/11 09:47:46;;;;;;;187.67;48.07;;;;;;;;;;772649;179;919126;-73
2021/01/11 09:50:12;;;;;;;258.35;51.85;;;;;;;;;;773498;179;918256;-73
2021/01/11 09:52:38;;;;;;;239.68;54.45;;;;;;;;;;780665;178;918812;-74
2021/01/11 09:55:05;;;;;;;190.80;40.13;;;;;;;;;;777648;179;919270;-71
2021/01/11 09:57:37;;;;;;;191.80;45.87;;;;;;;;;;772102;178;918866;-73
2021/01/11 10:00:08;;;;;;;189.30;48.50;;;;;;;;;;775485;178;1041256;-72
2021/01/11 10:02:34;;;;;;;197.40;45.30;;;;;;;;;;780731;178;1080717;-73
2021/01/11 10:05:00;;;;;;;257.90;54.30;;;;;;;;;;781026;177;918982;-72
2021/01/11 10:07:26;;;;;;;268.00;56.45;;;;;;;;;;773562;178;1130623;-72
2021/01/11 10:09:52;;;;;;;230.17;58.67;;;;;;;;;;770837;177;918982;-73
2021/01/11 10:12:17;;;;;;;196.33;49.60;;;;;;;;;;775218;179;917394;-73
2021/01/11 10:14:43;;;;;;;215.00;55.37;;;;;;;;;;777258;177;919341;-72
2021/01/11 10:17:09;;;;;;;196.60;54.67;;;;;;;;;;773832;178;918815;-72
2021/01/11 10:19:35;;;;;;;171.20;44.80;;;;;;;;;;784712;178;918193;-73
2021/01/11 10:22:02;;;;;;;158.43;43.67;;;;;;;;;;778134;178;918505;-73
2021/01/11 10:24:27;;;;;;;185.02;45.70;;;;;;;;;;772624;179;919559;-73
2021/01/11 10:26:53;;;;;;;177.17;46.23;;;;;;;;;;777333;178;918091;-72
2021/01/11 10:29:19;;;;;;;201.07;52.75;;;;;;;;;;776787;179;918641;-72
2021/01/11 10:31:44;;;;;;;136.40;46.10;;;;;;;;;;775429;178;920726;-72
2021/01/11 10:34:10;;;;;;;140.73;45.67;;;;;;;;;;780155;179;918219;-73
2021/01/11 10:36:39;;;;;;;143.60;41.53;;;;;;;;;;773018;178;911972;-71
2021/01/11 10:39:05;;;;;;;124.27;41.53;;;;;;;;;;775945;178;913665;-72
2021/01/11 10:41:30;;;;;;;136.37;41.80;;;;;;;;;;777369;178;918893;-73
2021/01/11 10:43:56;;;;;;;136.57;43.47;;;;;;;;;;778904;178;928320;-72
2021/01/11 10:46:22;;;;;;;142.87;44.47;;;;;;;;;;771929;179;918424;-71
2021/01/11 10:48:48;;;;;;;130.73;44.60;;;;;;;;;;776045;179;918367;-72
2021/01/11 10:51:14;;;;;;;158.83;47.17;;;;;;;;;;784692;177;929420;-72
2021/01/11 10:53:40;;;;;;;140.73;42.10;;;;;;;;;;772496;177;917903;-72
2021/01/11 10:56:06;;;;;;;142.17;45.77;;;;;;;;;;775504;179;919097;-71
2021/01/11 10:58:31;;;;;;;140.87;46.57;;;;;;;;;;772496;178;2042529;-72
2021/01/11 11:00:57;;;;;;;129.27;45.17;;;;;;;;;;774327;179;919346;-73
2021/01/11 11:03:23;;;;;;;139.27;48.30;;;;;;;;;;772533;178;1467216;-73
2021/01/11 11:05:50;;;;;;;141.60;46.67;;;;;;;;;;778471;178;933115;-72
2021/01/11 11:08:19;;;;;;;129.80;43.47;;;;;;;;;;780928;180;918234;-72
2021/01/11 11:10:45;;;;;;;137.47;46.00;;;;;;;;;;773512;178;1016530;-71
2021/01/11 11:13:11;;;;;;;155.43;51.47;;;;;;;;;;779870;178;925209;-71
2021/01/11 11:15:37;;;;;;;165.97;54.50;;;;;;;;;;782774;177;918830;-70
2021/01/11 11:18:03;;;;;;;174.47;62.07;;;;;;;;;;777597;178;918292;-69
2021/01/11 11:20:29;;;;;;;159.20;55.50;;;;;;;;;;773237;178;911808;-70
2021/01/11 11:22:54;;;;;;;149.07;56.23;;;;;;;;;;783845;178;918603;-69
2021/01/11 11:25:21;;;;;;;172.70;54.23;;;;;;;;;;773406;178;918512;-70
2021/01/11 11:27:48;;;;;;;153.97;50.40;;;;;;;;;;778516;179;919488;-71
2021/01/11 11:30:14;;;;;;;158.63;49.27;;;;;;;;;;774705;177;945869;-71
2021/01/11 11:32:40;;;;;;;122.97;44.23;;;;;;;;;;783555;178;919083;-70
2021/01/11 11:35:06;;;;;;;115.23;43.00;;;;;;;;;;774497;178;921350;-70
2021/01/11 11:37:32;;;;;;;119.70;39.87;;;;;;;;;;774162;178;916365;-71
2021/01/11 11:39:58;;;;;;;96.45;37.47;;;;;;;;;;778805;178;918800;-71
2021/01/11 11:42:24;;;;;;;105.27;34.50;;;;;;;;;;779060;178;923336;-70
2021/01/11 11:44:52;;;;;;;76.10;32.40;;;;;;;;;;773464;178;915755;-71
2021/01/11 11:47:18;;;;;;;83.35;31.75;;;;;;;;;;779295;178;918837;-70
2021/01/11 11:49:44;;;;;;;89.67;30.40;;;;;;;;;;779519;180;915099;-72
2021/01/11 11:52:10;;;;;;;64.37;28.50;;;;;;;;;;770941;178;1071726;-73
2021/01/11 11:54:36;;;;;;;59.53;25.87;;;;;;;;;;773269;178;919124;-72
2021/01/11 11:57:02;;;;;;;72.80;27.20;;;;;;;;;;777555;178;915421;-73
2021/01/11 11:59:28;;;;;;;54.00;24.47;;;;;;;;;;777726;178;944810;-72
2021/01/11 12:01:54;;;;;;;66.07;26.15;;;;;;;;;;777943;178;917892;-72
2021/01/11 12:04:19;;;;;;;61.83;25.97;;;;;;;;;;781011;179;918218;-72
2021/01/11 12:06:45;;;;;;;54.27;23.73;;;;;;;;;;771120;178;918968;-71
2021/01/11 12:09:11;;;;;;;51.63;23.43;;;;;;;;;;776259;178;918198;-72
2021/01/11 12:11:37;;;;;;;54.73;23.00;;;;;;;;;;780728;178;919826;-73
2021/01/11 12:14:03;;;;;;;49.67;21.83;;;;;;;;;;775765;178;918904;-72
2021/01/11 12:16:29;;;;;;;45.65;21.65;;;;;;;;;;774581;179;921185;-73
2021/01/11 12:18:54;;;;;;;45.50;20.97;;;;;;;;;;774422;179;949591;-71
2021/01/11 12:21:26;;;;;;;54.40;22.80;;;;;;;;;;779311;178;963901;-71
2021/01/11 12:23:52;;;;;;;53.83;25.87;;;;;;;;;;779502;178;919837;-72
2021/01/11 12:26:18;;;;;;;53.60;23.87;;;;;;;;;;777977;177;918692;-70
2021/01/11 12:28:45;;;;;;;57.37;24.27;;;;;;;;;;779986;178;918832;-72
2021/01/11 12:31:10;;;;;;;51.03;24.10;;;;;;;;;;778951;178;919175;-72
2021/01/11 12:33:36;;;;;;;55.50;25.25;;;;;;;;;;769268;179;1298627;-72
2021/01/11 12:36:02;;;;;;;49.33;22.10;;;;;;;;;;773229;178;1021206;-72
2021/01/11 12:38:28;;;;;;;54.17;24.63;;;;;;;;;;760861;180;944117;-72
2021/01/11 12:40:54;;;;;;;43.23;20.47;;;;;;;;;;765872;179;919110;-72
2021/01/11 12:43:19;;;;;;;44.73;19.03;;;;;;;;;;754417;182;918335;-71
2021/01/11 12:45:45;;;;;;;44.47;22.37;;;;;;;;;;780200;177;919156;-71
2021/01/11 12:48:11;;;;;;;40.57;19.67;;;;;;;;;;775193;178;916774;-72
2021/01/11 12:50:37;;;;;;;50.60;23.40;;;;;;;;;;775486;178;918423;-72
2021/01/11 12:53:03;;;;;;;46.63;19.63;;;;;;;;;;776461;178;919122;-71
2021/01/11 12:55:30;;;;;;;44.90;19.37;;;;;;;;;;776857;178;917514;-71
2021/01/11 12:57:56;;;;;;;43.70;19.87;;;;;;;;;;769788;178;987585;-72
2021/01/11 13:00:22;;;;;;;36.40;20.00;;;;;;;;;;776725;178;913301;-71
2021/01/11 13:02:49;;;;;;;44.70;23.00;;;;;;;;;;773568;180;919266;-70
2021/01/11 13:05:15;;;;;;;53.20;20.40;;;;;;;;;;779492;178;918887;-72
2021/01/11 13:07:40;;;;;;;50.83;21.40;;;;;;;;;;773451;179;918731;-69
2021/01/11 13:10:07;;;;;;;46.17;20.40;;;;;;;;;;777923;179;918417;-71
2021/01/11 13:12:33;;;;;;;44.13;19.93;;;;;;;;;;779296;178;918582;-71
2021/01/11 13:15:01;;;;;;;46.97;21.07;;;;;;;;;;774877;178;918118;-71
2021/01/11 13:17:25;;;;;;;49.83;20.00;;;;;;;;;;783137;178;919005;-71
2021/01/11 13:19:50;;;;;;;35.57;20.60;;;;;;;;;;768719;178;2178602;-71
2021/01/11 13:22:16;;;;;;;48.67;21.07;;;;;;;;;;777768;178;1019686;-71
2021/01/11 13:24:43;;;;;;;39.17;22.98;;;;;;;;;;773063;177;917873;-69
2021/01/11 13:27:09;;;;;;;36.63;17.60;;;;;;;;;;766023;181;918342;-71
2021/01/11 13:29:35;;;;;;;35.70;18.93;;;;;;;;;;761881;179;919726;-70
2021/01/11 13:32:01;;;;;;;37.57;19.40;;;;;;;;;;775793;178;918879;-70
2021/01/11 13:34:26;;;;;;;47.90;18.27;;;;;;;;;;778509;176;916234;-70
2021/01/11 13:36:52;;;;;;;36.27;17.50;;;;;;;;;;779953;178;916281;-69
2021/01/11 13:39:21;;;;;;;47.70;19.50;;;;;;;;;;771108;177;1911645;-69
2021/01/11 13:41:46;;;;;;;34.67;18.13;;;;;;;;;;787858;178;622807;-69
2021/01/11 13:44:12;;;;;;;39.77;19.53;;;;;;;;;;775540;178;920197;-69
2021/01/11 13:46:40;;;;;;;34.87;17.93;;;;;;;;;;777521;177;914132;-69
2021/01/11 13:49:06;;;;;;;35.57;19.50;;;;;;;;;;773158;178;918759;-68
2021/01/11 13:51:32;;;;;;;38.70;19.40;;;;;;;;;;775150;178;919966;-68
2021/01/11 13:53:58;;;;;;;34.03;17.40;;;;;;;;;;777669;178;919864;-68
2021/01/11 13:56:24;;;;;;;42.77;18.20;;;;;;;;;;771176;177;915898;-67